sensor_id;sensor_type;location;lat;lon;timestamp;P1;durP1;ratioP1;P2;durP2;ratioP2
43841;SDS011;29495;49.970;20.842;2022-11-03T00:01:42;13.82;;;6.78;;
43841;SDS011;29495;49.970;20.842;2022-11-03T00:04:14;8.45;;;6.05;;
43841;SDS011;29495;49.970;20.842;2022-11-03T00:06:42;10.25;;;5.43;;
43841;SDS011;29495;49.970;20.842;2022-11-03T00:09:10;9.13;;;5.22;;
43841;SDS011;29495;49.970;20.842;2022-11-03T00:11:38;11.30;;;6.25;;
43841;SDS011;29495;49.970;20.842;2022-11-03T00:14:05;11.02;;;6.32;;
43841;SDS011;29495;49.970;20.842;2022-11-03T00:16:33;10.55;;;6.40;;
43841;SDS011;29495;49.970;20.842;2022-11-03T00:19:00;8.63;;;6.10;;
43841;SDS011;29495;49.970;20.842;2022-11-03T00:21:26;9.13;;;5.85;;
43841;SDS011;29495;49.970;20.842;2022-11-03T00:23:53;11.85;;;6.07;;
43841;SDS011;29495;49.970;20.842;2022-11-03T00:26:26;6.53;;;5.07;;
43841;SDS011;29495;49.970;20.842;2022-11-03T00:28:56;9.10;;;5.22;;
43841;SDS011;29495;49.970;20.842;2022-11-03T00:33:53;7.22;;;5.25;;
43841;SDS011;29495;49.970;20.842;2022-11-03T00:36:21;8.00;;;5.68;;
43841;SDS011;29495;49.970;20.842;2022-11-03T00:41:15;9.38;;;5.80;;
43841;SDS011;29495;49.970;20.842;2022-11-03T00:43:42;8.20;;;5.22;;
43841;SDS011;29495;49.970;20.842;2022-11-03T00:46:08;8.13;;;5.10;;
43841;SDS011;29495;49.970;20.842;2022-11-03T00:48:35;10.57;;;5.20;;
43841;SDS011;29495;49.970;20.842;2022-11-03T00:53:31;11.65;;;5.45;;
43841;SDS011;29495;49.970;20.842;2022-11-03T00:55:59;10.75;;;5.95;;
43841;SDS011;29495;49.970;20.842;2022-11-03T00:58:26;6.95;;;4.78;;
43841;SDS011;29495;49.970;20.842;2022-11-03T01:01:11;10.13;;;6.00;;
43841;SDS011;29495;49.970;20.842;2022-11-03T01:03:46;10.20;;;5.60;;
43841;SDS011;29495;49.970;20.842;2022-11-03T01:06:32;11.77;;;6.10;;
43841;SDS011;29495;49.970;20.842;2022-11-03T01:09:36;9.98;;;6.13;;
43841;SDS011;29495;49.970;20.842;2022-11-03T01:12:09;11.45;;;5.88;;
43841;SDS011;29495;49.970;20.842;2022-11-03T01:14:43;9.05;;;5.40;;
43841;SDS011;29495;49.970;20.842;2022-11-03T01:17:14;11.52;;;6.20;;
43841;SDS011;29495;49.970;20.842;2022-11-03T01:19:43;7.70;;;5.25;;
43841;SDS011;29495;49.970;20.842;2022-11-03T01:22:10;9.05;;;5.82;;
43841;SDS011;29495;49.970;20.842;2022-11-03T01:24:37;9.93;;;5.72;;
43841;SDS011;29495;49.970;20.842;2022-11-03T01:27:05;10.45;;;5.97;;
43841;SDS011;29495;49.970;20.842;2022-11-03T01:29:32;10.70;;;6.18;;
43841;SDS011;29495;49.970;20.842;2022-11-03T01:31:58;12.20;;;5.90;;
43841;SDS011;29495;49.970;20.842;2022-11-03T01:34:24;7.15;;;5.25;;
43841;SDS011;29495;49.970;20.842;2022-11-03T01:36:50;10.13;;;6.55;;
43841;SDS011;29495;49.970;20.842;2022-11-03T01:39:17;8.57;;;5.82;;
43841;SDS011;29495;49.970;20.842;2022-11-03T01:41:45;10.00;;;5.55;;
43841;SDS011;29495;49.970;20.842;2022-11-03T01:52:20;7.72;;;4.88;;
43841;SDS011;29495;49.970;20.842;2022-11-03T01:54:54;13.10;;;6.32;;
43841;SDS011;29495;49.970;20.842;2022-11-03T01:57:44;10.60;;;5.70;;
43841;SDS011;29495;49.970;20.842;2022-11-03T02:00:12;9.27;;;6.20;;
43841;SDS011;29495;49.970;20.842;2022-11-03T02:02:39;11.10;;;5.35;;
43841;SDS011;29495;49.970;20.842;2022-11-03T02:05:07;10.48;;;5.80;;
43841;SDS011;29495;49.970;20.842;2022-11-03T02:07:39;10.30;;;5.57;;
43841;SDS011;29495;49.970;20.842;2022-11-03T02:10:12;8.27;;;5.65;;
43841;SDS011;29495;49.970;20.842;2022-11-03T02:12:38;12.52;;;6.20;;
43841;SDS011;29495;49.970;20.842;2022-11-03T02:15:07;12.30;;;6.40;;
43841;SDS011;29495;49.970;20.842;2022-11-03T02:17:36;15.75;;;7.00;;
43841;SDS011;29495;49.970;20.842;2022-11-03T02:20:05;11.18;;;6.45;;
43841;SDS011;29495;49.970;20.842;2022-11-03T02:28:00;12.63;;;7.63;;
43841;SDS011;29495;49.970;20.842;2022-11-03T02:30:28;11.60;;;7.15;;
43841;SDS011;29495;49.970;20.842;2022-11-03T02:36:07;12.15;;;6.68;;
43841;SDS011;29495;49.970;20.842;2022-11-03T02:38:46;10.17;;;5.97;;
43841;SDS011;29495;49.970;20.842;2022-11-03T02:41:18;11.18;;;7.10;;
43841;SDS011;29495;49.970;20.842;2022-11-03T02:43:46;12.00;;;7.15;;
43841;SDS011;29495;49.970;20.842;2022-11-03T02:46:13;11.07;;;6.97;;
43841;SDS011;29495;49.970;20.842;2022-11-03T02:48:41;13.18;;;6.93;;
43841;SDS011;29495;49.970;20.842;2022-11-03T02:51:07;10.90;;;6.10;;
43841;SDS011;29495;49.970;20.842;2022-11-03T02:53:35;10.27;;;5.60;;
43841;SDS011;29495;49.970;20.842;2022-11-03T02:56:09;12.93;;;6.72;;
43841;SDS011;29495;49.970;20.842;2022-11-03T03:01:36;15.88;;;5.60;;
43841;SDS011;29495;49.970;20.842;2022-11-03T03:04:56;9.85;;;5.55;;
43841;SDS011;29495;49.970;20.842;2022-11-03T03:07:15;11.52;;;6.03;;
43841;SDS011;29495;49.970;20.842;2022-11-03T03:09:48;10.32;;;5.90;;
43841;SDS011;29495;49.970;20.842;2022-11-03T03:12:25;9.10;;;6.22;;
43841;SDS011;29495;49.970;20.842;2022-11-03T03:14:52;9.65;;;6.55;;
43841;SDS011;29495;49.970;20.842;2022-11-03T03:17:25;13.32;;;6.97;;
43841;SDS011;29495;49.970;20.842;2022-11-03T03:20:00;14.25;;;7.68;;
43841;SDS011;29495;49.970;20.842;2022-11-03T03:22:32;11.90;;;6.60;;
43841;SDS011;29495;49.970;20.842;2022-11-03T03:28:01;16.52;;;7.68;;
43841;SDS011;29495;49.970;20.842;2022-11-03T03:30:33;19.35;;;8.65;;
43841;SDS011;29495;49.970;20.842;2022-11-03T03:33:02;14.18;;;7.35;;
43841;SDS011;29495;49.970;20.842;2022-11-03T03:35:29;9.38;;;6.07;;
43841;SDS011;29495;49.970;20.842;2022-11-03T03:38:02;10.80;;;6.28;;
43841;SDS011;29495;49.970;20.842;2022-11-03T03:40:33;10.48;;;5.38;;
43841;SDS011;29495;49.970;20.842;2022-11-03T03:43:02;12.13;;;6.10;;
43841;SDS011;29495;49.970;20.842;2022-11-03T03:45:30;9.85;;;5.82;;
43841;SDS011;29495;49.970;20.842;2022-11-03T03:47:58;11.10;;;5.50;;
43841;SDS011;29495;49.970;20.842;2022-11-03T03:50:24;11.13;;;6.20;;
43841;SDS011;29495;49.970;20.842;2022-11-03T03:52:56;8.70;;;5.43;;
43841;SDS011;29495;49.970;20.842;2022-11-03T03:55:25;12.15;;;6.07;;
43841;SDS011;29495;49.970;20.842;2022-11-03T03:58:02;12.68;;;6.32;;
43841;SDS011;29495;49.970;20.842;2022-11-03T04:00:28;9.85;;;6.07;;
43841;SDS011;29495;49.970;20.842;2022-11-03T04:02:57;13.68;;;6.93;;
43841;SDS011;29495;49.970;20.842;2022-11-03T04:07:50;11.85;;;6.97;;
43841;SDS011;29495;49.970;20.842;2022-11-03T04:10:18;11.35;;;6.93;;
43841;SDS011;29495;49.970;20.842;2022-11-03T04:12:46;10.45;;;6.88;;
43841;SDS011;29495;49.970;20.842;2022-11-03T04:15:31;10.85;;;6.22;;
43841;SDS011;29495;49.970;20.842;2022-11-03T04:18:16;14.07;;;7.75;;
43841;SDS011;29495;49.970;20.842;2022-11-03T04:21:02;12.60;;;7.18;;
43841;SDS011;29495;49.970;20.842;2022-11-03T04:23:47;12.07;;;6.75;;
43841;SDS011;29495;49.970;20.842;2022-11-03T04:26:14;10.27;;;6.40;;
43841;SDS011;29495;49.970;20.842;2022-11-03T04:28:44;10.43;;;6.28;;
43841;SDS011;29495;49.970;20.842;2022-11-03T04:31:14;12.93;;;6.32;;
43841;SDS011;29495;49.970;20.842;2022-11-03T04:33:41;11.55;;;6.63;;
43841;SDS011;29495;49.970;20.842;2022-11-03T04:36:29;8.10;;;6.00;;
43841;SDS011;29495;49.970;20.842;2022-11-03T04:38:54;11.93;;;6.18;;
43841;SDS011;29495;49.970;20.842;2022-11-03T04:41:24;11.90;;;6.68;;
43841;SDS011;29495;49.970;20.842;2022-11-03T04:43:55;8.90;;;5.63;;
43841;SDS011;29495;49.970;20.842;2022-11-03T04:46:25;11.38;;;5.95;;
43841;SDS011;29495;49.970;20.842;2022-11-03T04:48:53;14.23;;;6.07;;
43841;SDS011;29495;49.970;20.842;2022-11-03T04:51:24;9.10;;;5.72;;
43841;SDS011;29495;49.970;20.842;2022-11-03T04:53:54;10.95;;;6.20;;
43841;SDS011;29495;49.970;20.842;2022-11-03T04:56:23;9.98;;;5.97;;
43841;SDS011;29495;49.970;20.842;2022-11-03T04:58:50;11.82;;;6.07;;
43841;SDS011;29495;49.970;20.842;2022-11-03T05:01:18;10.77;;;5.82;;
43841;SDS011;29495;49.970;20.842;2022-11-03T05:03:47;10.10;;;5.82;;
43841;SDS011;29495;49.970;20.842;2022-11-03T05:06:19;10.45;;;5.95;;
43841;SDS011;29495;49.970;20.842;2022-11-03T05:08:48;10.00;;;6.30;;
43841;SDS011;29495;49.970;20.842;2022-11-03T05:11:20;11.13;;;6.30;;
43841;SDS011;29495;49.970;20.842;2022-11-03T05:14:16;14.43;;;6.70;;
43841;SDS011;29495;49.970;20.842;2022-11-03T05:16:56;11.38;;;5.65;;
43841;SDS011;29495;49.970;20.842;2022-11-03T05:19:34;12.05;;;6.82;;
43841;SDS011;29495;49.970;20.842;2022-11-03T05:22:03;14.00;;;7.70;;
43841;SDS011;29495;49.970;20.842;2022-11-03T05:24:30;11.55;;;6.95;;
43841;SDS011;29495;49.970;20.842;2022-11-03T05:26:57;10.77;;;5.72;;
43841;SDS011;29495;49.970;20.842;2022-11-03T05:29:25;12.68;;;6.35;;
43841;SDS011;29495;49.970;20.842;2022-11-03T05:31:59;13.60;;;6.82;;
43841;SDS011;29495;49.970;20.842;2022-11-03T05:37:25;12.48;;;6.13;;
43841;SDS011;29495;49.970;20.842;2022-11-03T05:39:50;10.27;;;5.78;;
43841;SDS011;29495;49.970;20.842;2022-11-03T05:44:46;12.95;;;6.25;;
43841;SDS011;29495;49.970;20.842;2022-11-03T05:49:45;36.40;;;14.35;;
43841;SDS011;29495;49.970;20.842;2022-11-03T05:52:15;52.67;;;17.30;;
43841;SDS011;29495;49.970;20.842;2022-11-03T05:54:45;54.70;;;19.30;;
43841;SDS011;29495;49.970;20.842;2022-11-03T05:57:12;45.00;;;17.65;;
43841;SDS011;29495;49.970;20.842;2022-11-03T05:59:41;30.80;;;12.93;;
43841;SDS011;29495;49.970;20.842;2022-11-03T06:04:54;17.52;;;8.00;;
43841;SDS011;29495;49.970;20.842;2022-11-03T06:07:23;14.20;;;7.60;;
43841;SDS011;29495;49.970;20.842;2022-11-03T06:09:53;15.00;;;6.60;;
43841;SDS011;29495;49.970;20.842;2022-11-03T06:12:20;10.02;;;5.82;;
43841;SDS011;29495;49.970;20.842;2022-11-03T06:14:47;10.35;;;5.78;;
43841;SDS011;29495;49.970;20.842;2022-11-03T06:19:45;10.93;;;6.00;;
43841;SDS011;29495;49.970;20.842;2022-11-03T06:22:23;11.45;;;6.40;;
43841;SDS011;29495;49.970;20.842;2022-11-03T06:24:51;9.25;;;6.30;;
43841;SDS011;29495;49.970;20.842;2022-11-03T06:27:22;10.50;;;6.22;;
43841;SDS011;29495;49.970;20.842;2022-11-03T06:29:59;14.80;;;6.63;;
43841;SDS011;29495;49.970;20.842;2022-11-03T06:34:56;10.82;;;4.65;;
43841;SDS011;29495;49.970;20.842;2022-11-03T06:37:30;9.43;;;5.32;;
43841;SDS011;29495;49.970;20.842;2022-11-03T06:39:58;10.88;;;4.97;;
43841;SDS011;29495;49.970;20.842;2022-11-03T06:42:26;8.95;;;5.03;;
43841;SDS011;29495;49.970;20.842;2022-11-03T06:44:56;11.98;;;5.43;;
43841;SDS011;29495;49.970;20.842;2022-11-03T06:47:25;12.23;;;5.97;;
43841;SDS011;29495;49.970;20.842;2022-11-03T06:49:57;12.20;;;6.25;;
43841;SDS011;29495;49.970;20.842;2022-11-03T06:52:31;11.70;;;5.25;;
43841;SDS011;29495;49.970;20.842;2022-11-03T06:57:37;10.85;;;5.38;;
43841;SDS011;29495;49.970;20.842;2022-11-03T07:05:55;12.15;;;5.50;;
43841;SDS011;29495;49.970;20.842;2022-11-03T07:11:00;10.98;;;5.40;;
43841;SDS011;29495;49.970;20.842;2022-11-03T07:13:30;8.75;;;5.72;;
43841;SDS011;29495;49.970;20.842;2022-11-03T07:15:58;9.90;;;5.65;;
43841;SDS011;29495;49.970;20.842;2022-11-03T07:18:28;12.57;;;6.32;;
43841;SDS011;29495;49.970;20.842;2022-11-03T07:20:58;11.32;;;7.18;;
43841;SDS011;29495;49.970;20.842;2022-11-03T07:23:30;13.52;;;7.93;;
43841;SDS011;29495;49.970;20.842;2022-11-03T07:25:57;13.85;;;7.40;;
43841;SDS011;29495;49.970;20.842;2022-11-03T07:28:27;14.45;;;6.25;;
43841;SDS011;29495;49.970;20.842;2022-11-03T07:31:00;10.95;;;6.97;;
43841;SDS011;29495;49.970;20.842;2022-11-03T07:33:30;14.77;;;6.88;;
43841;SDS011;29495;49.970;20.842;2022-11-03T07:35:57;11.05;;;6.03;;
43841;SDS011;29495;49.970;20.842;2022-11-03T07:38:24;8.77;;;5.65;;
43841;SDS011;29495;49.970;20.842;2022-11-03T07:40:52;10.73;;;6.85;;
43841;SDS011;29495;49.970;20.842;2022-11-03T07:43:22;11.80;;;6.78;;
43841;SDS011;29495;49.970;20.842;2022-11-03T07:45:54;9.68;;;6.25;;
43841;SDS011;29495;49.970;20.842;2022-11-03T07:48:38;10.75;;;6.18;;
43841;SDS011;29495;49.970;20.842;2022-11-03T07:51:15;13.13;;;6.35;;
43841;SDS011;29495;49.970;20.842;2022-11-03T07:53:55;12.05;;;6.20;;
43841;SDS011;29495;49.970;20.842;2022-11-03T07:56:49;12.68;;;6.43;;
43841;SDS011;29495;49.970;20.842;2022-11-03T07:59:41;13.73;;;7.10;;
43841;SDS011;29495;49.970;20.842;2022-11-03T08:04:50;12.85;;;6.88;;
43841;SDS011;29495;49.970;20.842;2022-11-03T08:07:16;11.05;;;6.82;;
43841;SDS011;29495;49.970;20.842;2022-11-03T08:09:42;11.57;;;6.63;;
43841;SDS011;29495;49.970;20.842;2022-11-03T08:12:08;11.10;;;6.32;;
43841;SDS011;29495;49.970;20.842;2022-11-03T08:14:34;10.10;;;5.65;;
43841;SDS011;29495;49.970;20.842;2022-11-03T08:17:02;10.20;;;5.85;;
43841;SDS011;29495;49.970;20.842;2022-11-03T08:19:28;10.65;;;5.57;;
43841;SDS011;29495;49.970;20.842;2022-11-03T08:21:55;11.85;;;7.13;;
43841;SDS011;29495;49.970;20.842;2022-11-03T08:24:21;10.25;;;5.75;;
43841;SDS011;29495;49.970;20.842;2022-11-03T08:26:47;10.07;;;5.65;;
43841;SDS011;29495;49.970;20.842;2022-11-03T08:29:13;10.52;;;6.82;;
43841;SDS011;29495;49.970;20.842;2022-11-03T08:31:42;11.57;;;6.20;;
43841;SDS011;29495;49.970;20.842;2022-11-03T08:34:08;11.75;;;6.43;;
43841;SDS011;29495;49.970;20.842;2022-11-03T08:36:34;11.85;;;6.72;;
43841;SDS011;29495;49.970;20.842;2022-11-03T08:39:02;9.40;;;6.07;;
43841;SDS011;29495;49.970;20.842;2022-11-03T08:41:28;12.25;;;6.85;;
43841;SDS011;29495;49.970;20.842;2022-11-03T08:43:55;17.10;;;7.57;;
43841;SDS011;29495;49.970;20.842;2022-11-03T08:46:21;11.38;;;5.55;;
43841;SDS011;29495;49.970;20.842;2022-11-03T08:48:47;13.80;;;7.05;;
43841;SDS011;29495;49.970;20.842;2022-11-03T08:51:13;13.80;;;5.93;;
43841;SDS011;29495;49.970;20.842;2022-11-03T08:53:40;11.10;;;5.55;;
43841;SDS011;29495;49.970;20.842;2022-11-03T08:56:07;10.02;;;4.95;;
43841;SDS011;29495;49.970;20.842;2022-11-03T08:58:33;9.63;;;5.30;;
43841;SDS011;29495;49.970;20.842;2022-11-03T09:00:59;8.05;;;4.72;;
43841;SDS011;29495;49.970;20.842;2022-11-03T09:03:25;10.00;;;4.40;;
43841;SDS011;29495;49.970;20.842;2022-11-03T09:05:51;8.20;;;4.10;;
43841;SDS011;29495;49.970;20.842;2022-11-03T09:08:17;8.38;;;4.60;;
43841;SDS011;29495;49.970;20.842;2022-11-03T09:10:43;7.72;;;4.40;;
43841;SDS011;29495;49.970;20.842;2022-11-03T09:13:09;8.60;;;5.15;;
43841;SDS011;29495;49.970;20.842;2022-11-03T09:15:35;8.68;;;4.25;;
43841;SDS011;29495;49.970;20.842;2022-11-03T09:18:01;7.90;;;4.32;;
43841;SDS011;29495;49.970;20.842;2022-11-03T09:20:27;8.82;;;4.20;;
43841;SDS011;29495;49.970;20.842;2022-11-03T09:22:53;6.28;;;4.00;;
43841;SDS011;29495;49.970;20.842;2022-11-03T09:25:19;8.38;;;4.35;;
43841;SDS011;29495;49.970;20.842;2022-11-03T09:27:45;6.85;;;4.15;;
43841;SDS011;29495;49.970;20.842;2022-11-03T09:30:11;15.55;;;5.13;;
43841;SDS011;29495;49.970;20.842;2022-11-03T09:32:37;8.68;;;4.93;;
43841;SDS011;29495;49.970;20.842;2022-11-03T09:35:04;8.73;;;4.28;;
43841;SDS011;29495;49.970;20.842;2022-11-03T09:37:30;7.72;;;4.13;;
43841;SDS011;29495;49.970;20.842;2022-11-03T09:39:56;7.38;;;3.90;;
43841;SDS011;29495;49.970;20.842;2022-11-03T09:42:22;12.40;;;4.55;;
43841;SDS011;29495;49.970;20.842;2022-11-03T09:44:51;7.35;;;3.70;;
43841;SDS011;29495;49.970;20.842;2022-11-03T09:47:26;6.93;;;3.47;;
43841;SDS011;29495;49.970;20.842;2022-11-03T09:49:57;10.90;;;4.30;;
43841;SDS011;29495;49.970;20.842;2022-11-03T09:52:24;6.57;;;3.30;;
43841;SDS011;29495;49.970;20.842;2022-11-03T09:54:51;7.03;;;2.85;;
43841;SDS011;29495;49.970;20.842;2022-11-03T09:57:19;6.78;;;3.00;;
43841;SDS011;29495;49.970;20.842;2022-11-03T09:59:46;11.93;;;3.70;;
43841;SDS011;29495;49.970;20.842;2022-11-03T10:02:30;8.17;;;3.40;;
43841;SDS011;29495;49.970;20.842;2022-11-03T10:04:57;9.85;;;3.53;;
43841;SDS011;29495;49.970;20.842;2022-11-03T10:07:27;7.82;;;3.10;;
43841;SDS011;29495;49.970;20.842;2022-11-03T10:09:55;6.75;;;3.47;;
43841;SDS011;29495;49.970;20.842;2022-11-03T10:12:23;6.35;;;2.83;;
43841;SDS011;29495;49.970;20.842;2022-11-03T10:14:50;6.95;;;3.03;;
43841;SDS011;29495;49.970;20.842;2022-11-03T10:17:17;3.58;;;2.15;;
43841;SDS011;29495;49.970;20.842;2022-11-03T10:22:13;8.38;;;3.50;;
43841;SDS011;29495;49.970;20.842;2022-11-03T10:24:40;6.82;;;3.08;;
43841;SDS011;29495;49.970;20.842;2022-11-03T10:27:18;7.10;;;3.60;;
43841;SDS011;29495;49.970;20.842;2022-11-03T10:30:01;4.95;;;2.33;;
43841;SDS011;29495;49.970;20.842;2022-11-03T10:32:30;5.25;;;2.42;;
43841;SDS011;29495;49.970;20.842;2022-11-03T10:34:58;8.50;;;2.45;;
43841;SDS011;29495;49.970;20.842;2022-11-03T10:37:25;5.20;;;2.88;;
43841;SDS011;29495;49.970;20.842;2022-11-03T10:39:55;6.47;;;2.70;;
43841;SDS011;29495;49.970;20.842;2022-11-03T10:42:23;4.45;;;2.15;;
43841;SDS011;29495;49.970;20.842;2022-11-03T10:44:54;7.17;;;3.17;;
43841;SDS011;29495;49.970;20.842;2022-11-03T10:47:41;5.35;;;3.13;;
43841;SDS011;29495;49.970;20.842;2022-11-03T10:50:19;4.03;;;2.55;;
43841;SDS011;29495;49.970;20.842;2022-11-03T10:52:47;6.13;;;2.40;;
43841;SDS011;29495;49.970;20.842;2022-11-03T10:55:14;4.70;;;2.33;;
43841;SDS011;29495;49.970;20.842;2022-11-03T10:57:41;5.10;;;2.03;;
43841;SDS011;29495;49.970;20.842;2022-11-03T11:00:26;5.00;;;1.90;;
43841;SDS011;29495;49.970;20.842;2022-11-03T11:02:53;4.57;;;2.30;;
43841;SDS011;29495;49.970;20.842;2022-11-03T11:05:23;4.43;;;2.03;;
43841;SDS011;29495;49.970;20.842;2022-11-03T11:07:50;4.65;;;2.33;;
43841;SDS011;29495;49.970;20.842;2022-11-03T11:10:27;5.83;;;1.73;;
43841;SDS011;29495;49.970;20.842;2022-11-03T11:18:07;4.57;;;1.90;;
43841;SDS011;29495;49.970;20.842;2022-11-03T11:20:34;3.00;;;1.45;;
43841;SDS011;29495;49.970;20.842;2022-11-03T11:31:01;6.60;;;3.50;;
43841;SDS011;29495;49.970;20.842;2022-11-03T11:33:48;6.97;;;3.33;;
43841;SDS011;29495;49.970;20.842;2022-11-03T11:36:22;5.43;;;2.70;;
43841;SDS011;29495;49.970;20.842;2022-11-03T11:41:20;6.28;;;3.25;;
43841;SDS011;29495;49.970;20.842;2022-11-03T11:47:29;11.00;;;3.50;;
43841;SDS011;29495;49.970;20.842;2022-11-03T11:52:46;4.83;;;2.73;;
43841;SDS011;29495;49.970;20.842;2022-11-03T11:57:54;4.45;;;2.30;;
43841;SDS011;29495;49.970;20.842;2022-11-03T12:00:25;5.38;;;2.70;;
43841;SDS011;29495;49.970;20.842;2022-11-03T12:02:54;4.65;;;2.78;;
43841;SDS011;29495;49.970;20.842;2022-11-03T12:05:31;7.90;;;3.35;;
43841;SDS011;29495;49.970;20.842;2022-11-03T12:07:58;5.32;;;2.92;;
43841;SDS011;29495;49.970;20.842;2022-11-03T12:10:25;8.23;;;2.58;;
43841;SDS011;29495;49.970;20.842;2022-11-03T12:12:54;6.40;;;2.88;;
43841;SDS011;29495;49.970;20.842;2022-11-03T12:20:59;3.50;;;2.17;;
43841;SDS011;29495;49.970;20.842;2022-11-03T12:25:59;4.93;;;2.35;;
43841;SDS011;29495;49.970;20.842;2022-11-03T12:28:32;4.90;;;1.85;;
43841;SDS011;29495;49.970;20.842;2022-11-03T12:31:02;4.88;;;2.00;;
43841;SDS011;29495;49.970;20.842;2022-11-03T12:33:28;2.83;;;1.80;;
43841;SDS011;29495;49.970;20.842;2022-11-03T12:35:55;4.47;;;1.63;;
43841;SDS011;29495;49.970;20.842;2022-11-03T12:38:22;5.68;;;1.90;;
43841;SDS011;29495;49.970;20.842;2022-11-03T12:40:48;3.90;;;2.20;;
43841;SDS011;29495;49.970;20.842;2022-11-03T12:43:15;6.05;;;2.13;;
43841;SDS011;29495;49.970;20.842;2022-11-03T12:45:41;6.22;;;2.30;;
43841;SDS011;29495;49.970;20.842;2022-11-03T12:48:07;5.70;;;2.20;;
43841;SDS011;29495;49.970;20.842;2022-11-03T12:50:33;5.60;;;2.28;;
43841;SDS011;29495;49.970;20.842;2022-11-03T12:53:03;6.22;;;2.42;;
43841;SDS011;29495;49.970;20.842;2022-11-03T12:55:31;4.88;;;1.85;;
43841;SDS011;29495;49.970;20.842;2022-11-03T12:57:58;4.82;;;2.10;;
43841;SDS011;29495;49.970;20.842;2022-11-03T13:00:24;3.60;;;1.67;;
43841;SDS011;29495;49.970;20.842;2022-11-03T13:02:51;5.70;;;1.75;;
43841;SDS011;29495;49.970;20.842;2022-11-03T13:05:17;5.57;;;2.45;;
43841;SDS011;29495;49.970;20.842;2022-11-03T13:07:42;4.72;;;2.03;;
43841;SDS011;29495;49.970;20.842;2022-11-03T13:10:09;6.55;;;2.08;;
43841;SDS011;29495;49.970;20.842;2022-11-03T13:12:35;4.50;;;2.40;;
43841;SDS011;29495;49.970;20.842;2022-11-03T13:15:06;7.75;;;2.58;;
43841;SDS011;29495;49.970;20.842;2022-11-03T13:17:33;6.20;;;2.50;;
43841;SDS011;29495;49.970;20.842;2022-11-03T13:19:59;7.30;;;2.25;;
43841;SDS011;29495;49.970;20.842;2022-11-03T13:22:25;4.07;;;1.75;;
43841;SDS011;29495;49.970;20.842;2022-11-03T13:24:51;2.90;;;1.48;;
43841;SDS011;29495;49.970;20.842;2022-11-03T13:27:17;3.38;;;2.00;;
43841;SDS011;29495;49.970;20.842;2022-11-03T13:29:43;8.18;;;2.85;;
43841;SDS011;29495;49.970;20.842;2022-11-03T13:32:09;5.82;;;2.72;;
43841;SDS011;29495;49.970;20.842;2022-11-03T13:34:35;5.30;;;2.97;;
43841;SDS011;29495;49.970;20.842;2022-11-03T13:37:01;6.30;;;2.58;;
43841;SDS011;29495;49.970;20.842;2022-11-03T13:39:27;8.68;;;2.85;;
43841;SDS011;29495;49.970;20.842;2022-11-03T13:41:53;5.53;;;2.30;;
43841;SDS011;29495;49.970;20.842;2022-11-03T13:44:18;8.95;;;3.72;;
43841;SDS011;29495;49.970;20.842;2022-11-03T13:46:45;5.65;;;2.72;;
43841;SDS011;29495;49.970;20.842;2022-11-03T13:49:11;5.82;;;3.15;;
43841;SDS011;29495;49.970;20.842;2022-11-03T13:51:37;7.10;;;3.40;;
43841;SDS011;29495;49.970;20.842;2022-11-03T13:54:03;7.10;;;2.80;;
43841;SDS011;29495;49.970;20.842;2022-11-03T13:56:29;6.50;;;2.95;;
43841;SDS011;29495;49.970;20.842;2022-11-03T13:58:55;8.73;;;3.45;;
43841;SDS011;29495;49.970;20.842;2022-11-03T14:01:20;6.30;;;3.17;;
43841;SDS011;29495;49.970;20.842;2022-11-03T14:03:46;6.18;;;2.95;;
43841;SDS011;29495;49.970;20.842;2022-11-03T14:06:12;8.82;;;3.47;;
43841;SDS011;29495;49.970;20.842;2022-11-03T14:08:38;8.10;;;3.53;;
43841;SDS011;29495;49.970;20.842;2022-11-03T14:11:04;6.20;;;3.30;;
43841;SDS011;29495;49.970;20.842;2022-11-03T14:13:49;7.78;;;3.45;;
43841;SDS011;29495;49.970;20.842;2022-11-03T14:16:15;8.93;;;3.50;;
43841;SDS011;29495;49.970;20.842;2022-11-03T14:18:41;7.63;;;3.13;;
43841;SDS011;29495;49.970;20.842;2022-11-03T14:21:07;7.97;;;3.78;;
43841;SDS011;29495;49.970;20.842;2022-11-03T14:23:33;8.70;;;3.45;;
43841;SDS011;29495;49.970;20.842;2022-11-03T14:25:58;10.07;;;4.05;;
43841;SDS011;29495;49.970;20.842;2022-11-03T14:28:24;7.75;;;3.55;;
43841;SDS011;29495;49.970;20.842;2022-11-03T14:30:50;5.88;;;3.17;;
43841;SDS011;29495;49.970;20.842;2022-11-03T14:33:16;9.65;;;3.50;;
43841;SDS011;29495;49.970;20.842;2022-11-03T14:35:42;6.68;;;3.33;;
43841;SDS011;29495;49.970;20.842;2022-11-03T14:38:08;7.05;;;3.72;;
43841;SDS011;29495;49.970;20.842;2022-11-03T14:40:34;6.95;;;3.50;;
43841;SDS011;29495;49.970;20.842;2022-11-03T14:43:18;6.22;;;2.92;;
43841;SDS011;29495;49.970;20.842;2022-11-03T14:45:44;6.90;;;3.15;;
43841;SDS011;29495;49.970;20.842;2022-11-03T14:48:10;7.30;;;3.83;;
43841;SDS011;29495;49.970;20.842;2022-11-03T14:50:37;7.32;;;2.97;;
43841;SDS011;29495;49.970;20.842;2022-11-03T14:53:03;5.32;;;2.78;;
43841;SDS011;29495;49.970;20.842;2022-11-03T14:55:29;6.00;;;2.75;;
43841;SDS011;29495;49.970;20.842;2022-11-03T14:57:54;5.63;;;2.60;;
43841;SDS011;29495;49.970;20.842;2022-11-03T15:00:20;6.22;;;2.85;;
43841;SDS011;29495;49.970;20.842;2022-11-03T15:02:46;5.57;;;2.78;;
43841;SDS011;29495;49.970;20.842;2022-11-03T15:05:12;5.38;;;3.25;;
43841;SDS011;29495;49.970;20.842;2022-11-03T15:07:58;7.95;;;4.60;;
43841;SDS011;29495;49.970;20.842;2022-11-03T15:10:24;7.40;;;5.28;;
43841;SDS011;29495;49.970;20.842;2022-11-03T15:12:50;9.18;;;5.05;;
43841;SDS011;29495;49.970;20.842;2022-11-03T15:15:16;9.15;;;4.20;;
43841;SDS011;29495;49.970;20.842;2022-11-03T15:17:42;8.73;;;4.60;;
43841;SDS011;29495;49.970;20.842;2022-11-03T15:20:08;8.52;;;4.20;;
43841;SDS011;29495;49.970;20.842;2022-11-03T15:22:34;7.60;;;4.45;;
43841;SDS011;29495;49.970;20.842;2022-11-03T15:25:00;15.50;;;7.03;;
43841;SDS011;29495;49.970;20.842;2022-11-03T15:27:26;17.00;;;8.68;;
43841;SDS011;29495;49.970;20.842;2022-11-03T15:29:52;21.67;;;10.18;;
43841;SDS011;29495;49.970;20.842;2022-11-03T15:32:18;22.05;;;10.68;;
43841;SDS011;29495;49.970;20.842;2022-11-03T15:34:44;28.33;;;12.18;;
43841;SDS011;29495;49.970;20.842;2022-11-03T15:37:10;29.65;;;12.40;;
43841;SDS011;29495;49.970;20.842;2022-11-03T15:39:36;25.58;;;12.38;;
43841;SDS011;29495;49.970;20.842;2022-11-03T15:42:02;27.52;;;12.65;;
43841;SDS011;29495;49.970;20.842;2022-11-03T15:44:28;27.48;;;13.00;;
43841;SDS011;29495;49.970;20.842;2022-11-03T15:46:54;28.02;;;13.77;;
43841;SDS011;29495;49.970;20.842;2022-11-03T15:49:20;34.60;;;14.98;;
43841;SDS011;29495;49.970;20.842;2022-11-03T15:51:46;48.22;;;19.52;;
43841;SDS011;29495;49.970;20.842;2022-11-03T15:54:12;54.83;;;22.05;;
43841;SDS011;29495;49.970;20.842;2022-11-03T15:56:38;56.92;;;22.73;;
43841;SDS011;29495;49.970;20.842;2022-11-03T15:59:04;48.80;;;20.10;;
43841;SDS011;29495;49.970;20.842;2022-11-03T16:01:30;54.88;;;22.17;;
43841;SDS011;29495;49.970;20.842;2022-11-03T16:03:55;47.05;;;17.73;;
43841;SDS011;29495;49.970;20.842;2022-11-03T16:06:21;43.03;;;17.92;;
43841;SDS011;29495;49.970;20.842;2022-11-03T16:08:47;37.10;;;15.98;;
43841;SDS011;29495;49.970;20.842;2022-11-03T16:11:13;34.53;;;14.70;;
43841;SDS011;29495;49.970;20.842;2022-11-03T16:13:39;33.47;;;14.13;;
43841;SDS011;29495;49.970;20.842;2022-11-03T16:16:05;33.45;;;13.98;;